Preston, MN

9:52 AM CDT on April 22, 2018 (GMT -0500)
Preston

Weather History for KFKA - November, 2012

Change the Weather History Date:

Monday, November 12, 2012

  Actual Average (KRST) Record (KRST)
Temperature  
Mean Temperature 26 °F -  
Max Temperature 28 °F 38 °F 62 °F (2001)
Min Temperature 23 °F 22 °F -1 °F (1986)
Degree Days  
Heating Degree Days 40    
Moisture  
Dew Point 15 °F    
Average Humidity 66    
Maximum Humidity 74    
Minimum Humidity 56    
Precipitation  
Precipitation 0.00 in - - ()
Sea Level Pressure  
Sea Level Pressure 30.09 in    
Wind  
Wind Speed 15 mph (West)    
Max Wind Speed 22 mph    
Max Gust Speed 30 mph    
Visibility 9 miles    
Events Snow    
Averages and records for this station are not official NWS values.
T = Trace of Precipitation, MM = Missing Value Source: NWS Daily Summary

Daily Weather History Graph

Daily Weather History Graph

Search for Another Location

Airport or City:

Astronomy

Nov. 12, 2012 Rise Set
Actual Time 6:59 AM CST 4:45 PM CST
Civil Twilight 6:28 AM CST 5:16 PM CST
Nautical Twilight 5:54 AM CST 5:51 PM CST
Astronomical Twilight 5:20 AM CST 6:24 PM CST
Moon 5:23 AM CST (11/12) 3:52 PM CST (11/12)
Length of Visible Light 10h 47m
Length of Day
9h 46m
Waning Crescent, 2% of the Moon is Illuminated
Nov 12
Waning Crescent
Nov 13
New
Nov 20
First Quarter
Nov 28
Full
Dec 6
Last Quarter

Hourly Weather History & Observations

Time (CST) Temp. Windchill Dew Point Humidity Pressure Visibility Wind Dir Wind Speed Gust Speed Precip Events Conditions
12:10 AM 25.5 °F 12.0 °F 14.9 °F 64% 29.97 in 10.0 mi West 18.4 mph - N/A   Overcast
12:30 AM 25.2 °F 12.4 °F 14.9 °F 65% 29.98 in 10.0 mi West 16.1 mph 24.2 mph N/A   Overcast
12:50 AM 24.6 °F 12.7 °F 14.0 °F 64% 29.98 in 10.0 mi West 13.8 mph 23.0 mph N/A   Overcast
1:10 AM 24.6 °F 10.5 °F 14.5 °F 66% 29.98 in 10.0 mi West 19.6 mph 23.0 mph N/A   Overcast
1:30 AM 24.3 °F 10.8 °F 13.5 °F 63% 29.98 in 10.0 mi WNW 17.3 mph 24.2 mph N/A   Overcast
1:50 AM 24.6 °F 13.8 °F 14.7 °F 66% 29.98 in 10.0 mi West 11.5 mph - N/A Snow Light Snow
2:10 AM 24.4 °F 11.9 °F 14.5 °F 66% 29.99 in 7.0 mi West 15.0 mph - N/A Snow Light Snow
2:30 AM 24.4 °F 10.2 °F 14.9 °F 67% 29.99 in 10.0 mi West 19.6 mph - N/A Snow Light Snow
2:50 AM 24.4 °F 11.0 °F 13.5 °F 63% 29.99 in 10.0 mi West 17.3 mph 24.2 mph N/A Snow Light Snow
3:30 AM 24.6 °F 13.8 °F 14.2 °F 65% 29.99 in 10.0 mi West 11.5 mph - N/A Snow Light Snow
3:49 AM 24.8 °F 14.0 °F 15.1 °F 67% 29.99 in 10.0 mi WSW 11.5 mph - N/A Snow Light Snow
4:09 AM 24.8 °F 12.9 °F 15.3 °F 67% 29.99 in 10.0 mi WSW 13.8 mph 19.6 mph N/A Snow Light Snow
4:30 AM 24.8 °F 11.5 °F 15.1 °F 67% 29.99 in 7.0 mi West 17.3 mph 23.0 mph N/A Snow Light Snow
4:50 AM 24.8 °F 11.1 °F 13.8 °F 63% 29.99 in 10.0 mi West 18.4 mph 25.3 mph N/A   Overcast
5:10 AM 24.4 °F 10.2 °F 12.7 °F 61% 29.99 in 10.0 mi West 19.6 mph 24.2 mph N/A   Overcast
5:30 AM 24.1 °F 11.0 °F 12.7 °F 62% 29.99 in 10.0 mi West 16.1 mph 19.6 mph N/A   Mostly Cloudy
5:50 AM 23.7 °F 11.5 °F 14.0 °F 66% 30.00 in 10.0 mi West 13.8 mph 18.4 mph N/A   Mostly Cloudy
6:10 AM 24.1 °F 11.0 °F 13.8 °F 65% 30.00 in 10.0 mi West 16.1 mph 20.7 mph N/A   Overcast
6:29 AM 23.9 °F 10.8 °F 14.0 °F 66% 30.00 in 10.0 mi West 16.1 mph 19.6 mph N/A   Overcast
6:50 AM 23.7 °F 12.6 °F 13.5 °F 65% 30.00 in 10.0 mi WSW 11.5 mph 20.7 mph N/A Snow Light Snow
7:10 AM 23.7 °F 10.5 °F 13.8 °F 66% 30.01 in 10.0 mi West 16.1 mph 21.9 mph N/A   Overcast
7:30 AM 23.9 °F 11.2 °F 14.4 °F 67% 30.02 in 10.0 mi West 15.0 mph 19.6 mph N/A Snow Light Snow
7:49 AM 23.7 °F 10.5 °F 14.5 °F 68% 30.02 in 10.0 mi West 16.1 mph - N/A Snow Light Snow
8:10 AM 23.9 °F 11.7 °F 14.9 °F 69% 30.03 in 7.0 mi WSW 13.8 mph 18.4 mph N/A Snow Light Snow
8:49 AM 24.8 °F 12.4 °F 15.4 °F 68% 30.03 in 4.0 mi WSW 15.0 mph 20.7 mph N/A Snow Light Snow
9:10 AM 24.8 °F 12.9 °F 15.8 °F 69% 30.03 in 4.0 mi West 13.8 mph 19.6 mph N/A Snow Light Snow
9:30 AM 25.5 °F 12.4 °F 16.9 °F 70% 30.03 in 3.0 mi West 17.3 mph 25.3 mph N/A Snow Light Snow
9:50 AM 25.7 °F 14.0 °F 17.4 °F 71% 30.03 in 2.5 mi WSW 13.8 mph 24.2 mph N/A Snow Light Snow
10:10 AM 26.4 °F 15.0 °F 18.9 °F 73% 30.04 in 2.0 mi West 13.8 mph 19.6 mph N/A Snow Light Snow
10:30 AM 26.4 °F 14.5 °F 19.2 °F 74% 30.04 in 2.0 mi WSW 15.0 mph 21.9 mph N/A Snow Light Snow
10:50 AM 27.0 °F 15.6 °F 18.3 °F 70% 30.04 in 5.0 mi West 13.8 mph 19.6 mph N/A Snow Light Snow
11:10 AM 27.3 °F 14.0 °F 17.2 °F 66% 30.04 in 4.0 mi West 19.6 mph 28.8 mph N/A Snow Light Snow
11:30 AM 27.5 °F 14.6 °F 16.0 °F 62% 30.04 in 7.0 mi West 18.4 mph 29.9 mph N/A Snow Light Snow
11:50 AM 27.3 °F 15.2 °F 16.3 °F 63% 30.04 in 7.0 mi West 16.1 mph 25.3 mph N/A Snow Light Snow
12:10 PM 26.2 °F 13.8 °F 18.9 °F 74% 30.04 in 0.5 mi West 16.1 mph 26.5 mph N/A Snow Light Snow
12:30 PM 26.4 °F 14.0 °F 18.5 °F 72% 30.05 in 5.0 mi WNW 16.1 mph - N/A Snow Light Snow
12:50 PM 27.1 °F 15.4 °F 18.1 °F 69% 30.06 in 7.0 mi WNW 15.0 mph 19.6 mph N/A Snow Light Snow
1:10 PM 27.5 °F 14.2 °F 16.2 °F 62% 30.06 in 10.0 mi West 19.6 mph 25.3 mph N/A   Overcast
1:30 PM 28.2 °F 15.2 °F 15.4 °F 59% 30.07 in 7.0 mi West 19.6 mph 29.9 mph N/A Snow Light Snow
1:50 PM 28.6 °F 15.0 °F 14.5 °F 56% 30.07 in 10.0 mi West 21.9 mph 28.8 mph N/A   Overcast
2:10 PM 27.5 °F 13.9 °F 14.9 °F 59% 30.08 in 10.0 mi WNW 20.7 mph 27.6 mph N/A Snow Light Snow
2:30 PM 27.9 °F 14.7 °F 15.1 °F 59% 30.09 in 10.0 mi West 19.6 mph 25.3 mph N/A   Mostly Cloudy
2:50 PM 27.9 °F 15.5 °F 13.8 °F 56% 30.09 in 10.0 mi West 17.3 mph - N/A   Scattered Clouds
3:10 PM 28.2 °F 15.5 °F 15.3 °F 58% 30.10 in 10.0 mi WNW 18.4 mph 26.5 mph N/A Snow Light Snow
3:30 PM 27.7 °F 15.2 °F 16.7 °F 63% 30.12 in 7.0 mi West 17.3 mph 21.9 mph N/A Snow Light Snow
3:50 PM 27.5 °F 13.9 °F 14.7 °F 59% 30.13 in 10.0 mi West 20.7 mph - N/A   Overcast
4:10 PM 27.3 °F 14.8 °F 15.3 °F 61% 30.14 in 10.0 mi West 17.3 mph 20.7 mph N/A   Overcast
4:30 PM 27.5 °F 15.9 °F 14.9 °F 59% 30.15 in 10.0 mi West 15.0 mph - N/A   Overcast
4:50 PM 27.5 °F 15.4 °F 14.9 °F 59% 30.16 in 10.0 mi West 16.1 mph 21.9 mph N/A   Overcast
5:10 PM 27.5 °F 17.4 °F 15.4 °F 61% 30.16 in 10.0 mi WNW 11.5 mph 21.9 mph N/A   Overcast
5:30 PM 27.5 °F 15.9 °F 15.6 °F 61% 30.17 in 10.0 mi WNW 15.0 mph 23.0 mph N/A   Overcast
5:50 PM 27.0 °F 15.6 °F 14.9 °F 60% 30.18 in 10.0 mi WNW 13.8 mph 21.9 mph N/A   Mostly Cloudy
6:10 PM 26.4 °F 15.5 °F 15.4 °F 63% 30.19 in 10.0 mi West 12.7 mph - N/A   Scattered Clouds
6:29 PM 25.7 °F 16.4 °F 15.4 °F 65% 30.19 in 10.0 mi West 9.2 mph - N/A   Clear
6:50 PM 25.5 °F 15.5 °F 15.8 °F 67% 30.20 in 10.0 mi West 10.4 mph - N/A   Clear
7:10 PM 25.3 °F 16.0 °F 15.8 °F 67% 30.21 in 10.0 mi West 9.2 mph - N/A   Clear
7:30 PM 25.0 °F 15.5 °F 15.8 °F 68% 30.22 in 10.0 mi West 9.2 mph - N/A   Clear
7:50 PM 24.8 °F 15.3 °F 16.2 °F 70% 30.23 in 10.0 mi West 9.2 mph - N/A   Clear
8:30 PM 24.4 °F 14.2 °F 15.8 °F 70% 30.24 in 10.0 mi West 10.4 mph - N/A   Clear
8:50 PM 24.4 °F 14.9 °F 15.8 °F 70% 30.25 in 10.0 mi West 9.2 mph - N/A   Clear
9:10 PM 24.3 °F 14.6 °F 15.8 °F 70% 30.26 in 10.0 mi West 9.2 mph - N/A   Clear
9:30 PM 23.9 °F 15.0 °F 15.8 °F 71% 30.26 in 10.0 mi West 8.1 mph - N/A   Clear
9:50 PM 23.9 °F 15.0 °F 15.8 °F 71% 30.26 in 10.0 mi West 8.1 mph - N/A   Clear
10:10 PM 23.9 °F 14.2 °F 15.8 °F 71% 30.27 in 10.0 mi West 9.2 mph - N/A   Clear
10:30 PM 23.9 °F 14.2 °F 15.8 °F 71% 30.28 in 10.0 mi West 9.2 mph - N/A   Clear
10:50 PM 23.7 °F 14.0 °F 15.8 °F 72% 30.28 in 10.0 mi West 9.2 mph - N/A   Clear
11:10 PM 23.7 °F 14.0 °F 15.8 °F 72% 30.28 in 10.0 mi West 9.2 mph - N/A   Clear
11:30 PM 23.9 °F 13.5 °F 15.8 °F 71% 30.29 in 10.0 mi West 10.4 mph - N/A   Clear
11:50 PM 23.7 °F 13.3 °F 15.8 °F 72% 30.29 in 10.0 mi West 10.4 mph - N/A   Clear